KBMC

Brigham City Airport

Brigham City, Utah, USA

KBMC 110855Z AUTO 00000KT 7SM CLR M08/M10 A3062 RMK AO1 T10781098

Observed Flight Rules
Dec-11 @ 08:55 UTC (24 minutes ago) Visual Flight Rules
Wind Visibility Clouds
Calm 7 miles
  • Clear skies
Temperatures Readings
Current -8°C / 18°F
Dewpoint -10°C / 14°F
Humidity 86%
Altimeter 30.62" Hg
Pressure 1037 hPa
Elevation 1288
Observed Flight Rules
Dec-11 @ 08:55 UTC
(24 minutes ago)
VFR
Wind Visibility
Calm 7 miles
Clouds
  • Clear skies
Temperature Dewpoint
-8°C / 18°F -10°C / 14°F
Humidity Altimeter Pressure
86% 30.62" Hg 1037 hPa